sensor_id;sensor_type;location;lat;lon;timestamp;pressure;altitude;pressure_sealevel;temperature;humidity
78223;BME280;67497;53.058;21.618;2024-03-23T00:52:36;99457.34;;;7.80;100.00
78223;BME280;67497;53.058;21.618;2024-03-23T00:54:36;99448.31;;;7.79;100.00
78223;BME280;67497;53.058;21.618;2024-03-23T00:56:37;99447.31;;;7.80;100.00
78223;BME280;67497;53.058;21.618;2024-03-23T00:58:37;99446.28;;;7.81;100.00
78223;BME280;67497;53.058;21.618;2024-03-23T01:00:37;99457.19;;;7.81;100.00
78223;BME280;67497;53.058;21.618;2024-03-23T01:02:38;99446.06;;;7.75;100.00
78223;BME280;67497;53.058;21.618;2024-03-23T01:04:38;99445.50;;;7.71;100.00
78223;BME280;67497;53.058;21.618;2024-03-23T01:06:38;99447.75;;;7.76;100.00
78223;BME280;67497;53.058;21.618;2024-03-23T01:08:39;99447.44;;;7.79;100.00
78223;BME280;67497;53.058;21.618;2024-03-23T01:10:39;99439.44;;;7.77;100.00
78223;BME280;67497;53.058;21.618;2024-03-23T01:12:40;99446.63;;;7.78;100.00
78223;BME280;67497;53.058;21.618;2024-03-23T01:14:40;99442.88;;;7.79;100.00
78223;BME280;67497;53.058;21.618;2024-03-23T01:16:40;99439.75;;;7.74;100.00
78223;BME280;67497;53.058;21.618;2024-03-23T01:18:41;99437.66;;;7.68;100.00
78223;BME280;67497;53.058;21.618;2024-03-23T01:20:41;99439.38;;;7.69;100.00
78223;BME280;67497;53.058;21.618;2024-03-23T01:22:42;99443.47;;;7.73;100.00
78223;BME280;67497;53.058;21.618;2024-03-23T01:24:42;99434.63;;;7.71;100.00
78223;BME280;67497;53.058;21.618;2024-03-23T01:26:42;99437.34;;;7.71;100.00
78223;BME280;67497;53.058;21.618;2024-03-23T01:28:43;99438.44;;;7.78;100.00
78223;BME280;67497;53.058;21.618;2024-03-23T01:30:43;99441.47;;;7.75;100.00
78223;BME280;67497;53.058;21.618;2024-03-23T01:32:43;99439.94;;;7.73;100.00
78223;BME280;67497;53.058;21.618;2024-03-23T01:34:44;99427.59;;;7.69;100.00
78223;BME280;67497;53.058;21.618;2024-03-23T01:36:45;99432.19;;;7.68;100.00
78223;BME280;67497;53.058;21.618;2024-03-23T01:38:46;99431.19;;;7.69;100.00
78223;BME280;67497;53.058;21.618;2024-03-23T01:40:46;99430.63;;;7.66;100.00
78223;BME280;67497;53.058;21.618;2024-03-23T01:42:57;99431.34;;;7.68;100.00
78223;BME280;67497;53.058;21.618;2024-03-23T01:44:58;99436.34;;;7.72;100.00
78223;BME280;67497;53.058;21.618;2024-03-23T01:46:58;99432.13;;;7.78;100.00
78223;BME280;67497;53.058;21.618;2024-03-23T01:48:59;99430.78;;;7.82;100.00
78223;BME280;67497;53.058;21.618;2024-03-23T01:51:00;99423.94;;;7.78;100.00
78223;BME280;67497;53.058;21.618;2024-03-23T01:53:04;99424.81;;;7.78;100.00
78223;BME280;67497;53.058;21.618;2024-03-23T01:55:06;99419.34;;;7.78;100.00
78223;BME280;67497;53.058;21.618;2024-03-23T01:57:07;99427.38;;;7.80;100.00
78223;BME280;67497;53.058;21.618;2024-03-23T01:59:08;99423.16;;;7.86;100.00
78223;BME280;67497;53.058;21.618;2024-03-23T02:01:08;99415.84;;;7.86;100.00
78223;BME280;67497;53.058;21.618;2024-03-23T02:03:25;99413.25;;;7.84;100.00
78223;BME280;67497;53.058;21.618;2024-03-23T02:05:26;99412.19;;;7.77;100.00
78223;BME280;67497;53.058;21.618;2024-03-23T02:07:27;99418.81;;;7.75;100.00
78223;BME280;67497;53.058;21.618;2024-03-23T02:09:28;99412.88;;;7.79;100.00
78223;BME280;67497;53.058;21.618;2024-03-23T02:11:28;99411.88;;;7.80;100.00
78223;BME280;67497;53.058;21.618;2024-03-23T02:13:28;99402.81;;;7.80;100.00
78223;BME280;67497;53.058;21.618;2024-03-23T02:15:29;99397.63;;;7.87;100.00
78223;BME280;67497;53.058;21.618;2024-03-23T02:17:31;99402.19;;;7.86;100.00
78223;BME280;67497;53.058;21.618;2024-03-23T02:19:32;99400.47;;;7.85;100.00
78223;BME280;67497;53.058;21.618;2024-03-23T02:21:32;99397.38;;;7.80;100.00
78223;BME280;67497;53.058;21.618;2024-03-23T02:23:32;99410.38;;;7.86;100.00
78223;BME280;67497;53.058;21.618;2024-03-23T02:25:33;99399.84;;;7.91;100.00
78223;BME280;67497;53.058;21.618;2024-03-23T02:27:33;99404.75;;;7.88;100.00
78223;BME280;67497;53.058;21.618;2024-03-23T02:29:36;99400.66;;;7.83;100.00
78223;BME280;67497;53.058;21.618;2024-03-23T02:31:36;99396.03;;;7.84;100.00
78223;BME280;67497;53.058;21.618;2024-03-23T02:33:36;99384.97;;;7.86;100.00
78223;BME280;67497;53.058;21.618;2024-03-23T02:35:38;99390.44;;;7.86;100.00
78223;BME280;67497;53.058;21.618;2024-03-23T02:37:38;99394.34;;;7.83;100.00
78223;BME280;67497;53.058;21.618;2024-03-23T02:39:39;99378.53;;;7.87;100.00
78223;BME280;67497;53.058;21.618;2024-03-23T02:41:39;99384.13;;;7.85;100.00
78223;BME280;67497;53.058;21.618;2024-03-23T02:43:39;99376.81;;;7.86;100.00
78223;BME280;67497;53.058;21.618;2024-03-23T02:45:40;99379.53;;;7.86;100.00
78223;BME280;67497;53.058;21.618;2024-03-23T02:47:40;99385.97;;;7.84;100.00
78223;BME280;67497;53.058;21.618;2024-03-23T02:49:41;99381.94;;;7.89;100.00
78223;BME280;67497;53.058;21.618;2024-03-23T02:51:41;99379.84;;;7.82;100.00
78223;BME280;67497;53.058;21.618;2024-03-23T02:53:41;99369.75;;;7.75;100.00
78223;BME280;67497;53.058;21.618;2024-03-23T02:55:42;99375.75;;;7.78;100.00
78223;BME280;67497;53.058;21.618;2024-03-23T02:57:42;99376.25;;;7.82;100.00
78223;BME280;67497;53.058;21.618;2024-03-23T02:59:42;99361.38;;;7.76;100.00
78223;BME280;67497;53.058;21.618;2024-03-23T03:01:43;99366.69;;;7.78;100.00
78223;BME280;67497;53.058;21.618;2024-03-23T03:03:43;99366.53;;;7.79;100.00
78223;BME280;67497;53.058;21.618;2024-03-23T03:05:44;99366.53;;;7.79;100.00
78223;BME280;67497;53.058;21.618;2024-03-23T03:07:45;99352.91;;;7.79;100.00
78223;BME280;67497;53.058;21.618;2024-03-23T03:09:45;99361.38;;;7.76;100.00
78223;BME280;67497;53.058;21.618;2024-03-23T03:11:45;99365.91;;;7.86;100.00
78223;BME280;67497;53.058;21.618;2024-03-23T03:13:46;99364.50;;;7.81;100.00
78223;BME280;67497;53.058;21.618;2024-03-23T03:15:46;99358.41;;;7.88;100.00
78223;BME280;67497;53.058;21.618;2024-03-23T03:17:47;99358.09;;;7.91;100.00
78223;BME280;67497;53.058;21.618;2024-03-23T03:19:47;99358.09;;;7.91;100.00
78223;BME280;67497;53.058;21.618;2024-03-23T03:21:48;99360.13;;;7.89;100.00
78223;BME280;67497;53.058;21.618;2024-03-23T03:23:48;99357.34;;;7.80;100.00
78223;BME280;67497;53.058;21.618;2024-03-23T03:25:50;99363.47;;;7.82;100.00
78223;BME280;67497;53.058;21.618;2024-03-23T03:27:50;99358.41;;;7.88;100.00
78223;BME280;67497;53.058;21.618;2024-03-23T03:29:51;99356.38;;;7.90;100.00
78223;BME280;67497;53.058;21.618;2024-03-23T03:31:51;99357.22;;;7.90;100.00
78223;BME280;67497;53.058;21.618;2024-03-23T03:33:52;99362.53;;;7.92;100.00
78223;BME280;67497;53.058;21.618;2024-03-23T03:35:52;99354.81;;;7.87;100.00
78223;BME280;67497;53.058;21.618;2024-03-23T03:37:52;99361.75;;;7.81;100.00
78223;BME280;67497;53.058;21.618;2024-03-23T03:39:53;99358.22;;;7.81;100.00
78223;BME280;67497;53.058;21.618;2024-03-23T03:41:53;99357.66;;;7.77;100.00
78223;BME280;67497;53.058;21.618;2024-03-23T03:43:53;99356.56;;;7.70;100.00
78223;BME280;67497;53.058;21.618;2024-03-23T03:45:56;99368.25;;;7.80;100.00
78223;BME280;67497;53.058;21.618;2024-03-23T03:47:57;99353.59;;;7.81;100.00
78223;BME280;67497;53.058;21.618;2024-03-23T03:49:59;99353.59;;;7.81;100.00
78223;BME280;67497;53.058;21.618;2024-03-23T03:51:59;99362.78;;;7.80;100.00
78223;BME280;67497;53.058;21.618;2024-03-23T03:54:01;99358.66;;;7.76;100.00
78223;BME280;67497;53.058;21.618;2024-03-23T03:56:02;99358.59;;;7.68;100.00
78223;BME280;67497;53.058;21.618;2024-03-23T03:58:03;99371.59;;;7.74;100.00
78223;BME280;67497;53.058;21.618;2024-03-23T04:00:05;99364.75;;;7.70;100.00
78223;BME280;67497;53.058;21.618;2024-03-23T04:02:05;99365.28;;;7.74;100.00
78223;BME280;67497;53.058;21.618;2024-03-23T04:04:06;99370.59;;;7.75;100.00
78223;BME280;67497;53.058;21.618;2024-03-23T04:06:06;99369.75;;;7.75;100.00
78223;BME280;67497;53.058;21.618;2024-03-23T04:08:07;99368.19;;;7.72;100.00
78223;BME280;67497;53.058;21.618;2024-03-23T04:10:08;99372.59;;;7.73;100.00
78223;BME280;67497;53.058;21.618;2024-03-23T04:12:09;99363.75;;;7.71;100.00
78223;BME280;67497;53.058;21.618;2024-03-23T04:14:09;99359.16;;;7.72;100.00
78223;BME280;67497;53.058;21.618;2024-03-23T04:16:09;99360.88;;;7.73;100.00
78223;BME280;67497;53.058;21.618;2024-03-23T04:18:10;99366.84;;;7.76;100.00
78223;BME280;67497;53.058;21.618;2024-03-23T04:20:10;99356.97;;;7.75;100.00
78223;BME280;67497;53.058;21.618;2024-03-23T04:22:11;99357.66;;;7.77;100.00
78223;BME280;67497;53.058;21.618;2024-03-23T04:24:11;99354.75;;;7.79;100.00
78223;BME280;67497;53.058;21.618;2024-03-23T04:26:12;99353.94;;;7.78;100.00
78223;BME280;67497;53.058;21.618;2024-03-23T04:28:12;99354.63;;;7.80;100.00
78223;BME280;67497;53.058;21.618;2024-03-23T04:30:13;99346.56;;;7.79;100.00
78223;BME280;67497;53.058;21.618;2024-03-23T04:32:14;99354.75;;;7.79;100.00
78223;BME280;67497;53.058;21.618;2024-03-23T04:34:14;99345.19;;;7.75;100.00
78223;BME280;67497;53.058;21.618;2024-03-23T04:36:14;99343.16;;;7.77;100.00
78223;BME280;67497;53.058;21.618;2024-03-23T04:38:15;99344.16;;;7.76;100.00
78223;BME280;67497;53.058;21.618;2024-03-23T04:40:16;99344.72;;;7.79;100.00
78223;BME280;67497;53.058;21.618;2024-03-23T04:42:17;99340.28;;;7.78;100.00
78223;BME280;67497;53.058;21.618;2024-03-23T04:44:17;99342.16;;;7.78;100.00
78223;BME280;67497;53.058;21.618;2024-03-23T04:46:18;99332.94;;;7.79;100.00
78223;BME280;67497;53.058;21.618;2024-03-23T04:48:22;99336.00;;;7.76;100.00
78223;BME280;67497;53.058;21.618;2024-03-23T04:50:23;99330.72;;;7.74;100.00
78223;BME280;67497;53.058;21.618;2024-03-23T04:52:23;99341.63;;;7.74;100.00
78223;BME280;67497;53.058;21.618;2024-03-23T04:54:24;99340.97;;;7.80;100.00
78223;BME280;67497;53.058;21.618;2024-03-23T04:56:24;99335.84;;;7.77;100.00
78223;BME280;67497;53.058;21.618;2024-03-23T04:58:25;99329.41;;;7.78;100.00
78223;BME280;67497;53.058;21.618;2024-03-23T05:00:25;99338.09;;;7.82;100.00
78223;BME280;67497;53.058;21.618;2024-03-23T05:02:26;99341.84;;;7.81;100.00
78223;BME280;67497;53.058;21.618;2024-03-23T05:04:27;99340.66;;;7.83;100.00
78223;BME280;67497;53.058;21.618;2024-03-23T05:06:28;99342.69;;;7.81;100.00
78223;BME280;67497;53.058;21.618;2024-03-23T05:08:28;99339.25;;;7.79;100.00
78223;BME280;67497;53.058;21.618;2024-03-23T05:10:29;99343.44;;;7.92;100.00
78223;BME280;67497;53.058;21.618;2024-03-23T05:12:30;99343.44;;;7.92;100.00
78223;BME280;67497;53.058;21.618;2024-03-23T05:14:31;99328.78;;;7.93;100.00
78223;BME280;67497;53.058;21.618;2024-03-23T05:16:31;99338.19;;;7.98;100.00
78223;BME280;67497;53.058;21.618;2024-03-23T05:18:32;99330.56;;;8.02;100.00
78223;BME280;67497;53.058;21.618;2024-03-23T05:20:32;99332.97;;;8.05;100.00
78223;BME280;67497;53.058;21.618;2024-03-23T05:22:33;99330.59;;;8.10;100.00
78223;BME280;67497;53.058;21.618;2024-03-23T05:24:33;99331.59;;;8.09;100.00
78223;BME280;67497;53.058;21.618;2024-03-23T05:26:34;99328.06;;;8.08;100.00
78223;BME280;67497;53.058;21.618;2024-03-23T05:28:35;99314.88;;;8.04;100.00
78223;BME280;67497;53.058;21.618;2024-03-23T05:30:36;99327.19;;;8.08;100.00
78223;BME280;67497;53.058;21.618;2024-03-23T05:32:36;99319.38;;;8.13;100.00
78223;BME280;67497;53.058;21.618;2024-03-23T05:34:38;99322.78;;;8.15;100.00
78223;BME280;67497;53.058;21.618;2024-03-23T05:36:39;99315.81;;;8.20;100.00
78223;BME280;67497;53.058;21.618;2024-03-23T05:38:39;99308.84;;;8.26;100.00
78223;BME280;67497;53.058;21.618;2024-03-23T05:40:39;99308.25;;;8.32;100.00
78223;BME280;67497;53.058;21.618;2024-03-23T05:42:40;99307.56;;;8.38;100.00
78223;BME280;67497;53.058;21.618;2024-03-23T05:44:43;99305.22;;;8.43;100.00
78223;BME280;67497;53.058;21.618;2024-03-23T05:46:43;99317.19;;;8.50;100.00
78223;BME280;67497;53.058;21.618;2024-03-23T05:48:48;99314.13;;;8.53;100.00
78223;BME280;67497;53.058;21.618;2024-03-23T05:50:49;99312.94;;;8.56;100.00
78223;BME280;67497;53.058;21.618;2024-03-23T05:52:50;99321.66;;;8.59;100.00
78223;BME280;67497;53.058;21.618;2024-03-23T05:54:51;99317.56;;;8.63;100.00
78223;BME280;67497;53.058;21.618;2024-03-23T05:56:54;99311.44;;;8.69;100.00
78223;BME280;67497;53.058;21.618;2024-03-23T05:58:55;99312.31;;;8.70;100.00
78223;BME280;67497;53.058;21.618;2024-03-23T06:00:59;99309.06;;;8.74;100.00
78223;BME280;67497;53.058;21.618;2024-03-23T06:03:03;99307.34;;;8.73;100.00
78223;BME280;67497;53.058;21.618;2024-03-23T06:05:03;99302.25;;;8.70;100.00
78223;BME280;67497;53.058;21.618;2024-03-23T06:07:04;99302.59;;;8.75;100.00
78223;BME280;67497;53.058;21.618;2024-03-23T06:09:13;99300.91;;;8.90;100.00
78223;BME280;67497;53.058;21.618;2024-03-23T06:11:14;99302.47;;;8.93;100.00
78223;BME280;67497;53.058;21.618;2024-03-23T06:13:14;99303.31;;;8.93;100.00
78223;BME280;67497;53.058;21.618;2024-03-23T06:15:15;99306.03;;;8.85;100.00
78223;BME280;67497;53.058;21.618;2024-03-23T06:17:15;99302.97;;;8.88;100.00
78223;BME280;67497;53.058;21.618;2024-03-23T06:19:16;99298.69;;;8.86;100.00
78223;BME280;67497;53.058;21.618;2024-03-23T06:21:16;99289.66;;;8.85;100.00
78223;BME280;67497;53.058;21.618;2024-03-23T06:23:16;99299.91;;;8.91;100.00
78223;BME280;67497;53.058;21.618;2024-03-23T06:25:20;99290.34;;;8.95;100.00
78223;BME280;67497;53.058;21.618;2024-03-23T06:27:20;99292.41;;;8.93;100.00
78223;BME280;67497;53.058;21.618;2024-03-23T06:29:20;99296.66;;;8.96;100.00
78223;BME280;67497;53.058;21.618;2024-03-23T06:31:21;99292.91;;;8.97;100.00
78223;BME280;67497;53.058;21.618;2024-03-23T06:33:21;99293.41;;;8.92;100.00
78223;BME280;67497;53.058;21.618;2024-03-23T06:35:21;99294.25;;;8.93;100.00
78223;BME280;67497;53.058;21.618;2024-03-23T06:37:22;99297.00;;;8.93;100.00
78223;BME280;67497;53.058;21.618;2024-03-23T06:39:22;99300.56;;;8.85;100.00
78223;BME280;67497;53.058;21.618;2024-03-23T06:41:23;99303.97;;;8.87;100.00
78223;BME280;67497;53.058;21.618;2024-03-23T06:43:23;99293.75;;;8.89;100.00
78223;BME280;67497;53.058;21.618;2024-03-23T06:45:24;99300.25;;;8.96;100.00
78223;BME280;67497;53.058;21.618;2024-03-23T06:47:24;99290.00;;;8.98;100.00
78223;BME280;67497;53.058;21.618;2024-03-23T06:49:25;99287.47;;;9.13;100.00
78223;BME280;67497;53.058;21.618;2024-03-23T06:51:26;99280.47;;;9.19;100.00
78223;BME280;67497;53.058;21.618;2024-03-23T06:53:26;99274.50;;;9.31;99.33
78223;BME280;67497;53.058;21.618;2024-03-23T06:55:27;99291.22;;;9.52;98.24
78223;BME280;67497;53.058;21.618;2024-03-23T06:57:27;99291.56;;;9.57;95.07
78223;BME280;67497;53.058;21.618;2024-03-23T06:59:28;99286.59;;;9.69;94.91
78223;BME280;67497;53.058;21.618;2024-03-23T07:01:28;99290.88;;;9.80;94.47
78223;BME280;67497;53.058;21.618;2024-03-23T07:03:29;99298.53;;;9.84;93.09
78223;BME280;67497;53.058;21.618;2024-03-23T07:05:29;99288.63;;;9.91;92.15
78223;BME280;67497;53.058;21.618;2024-03-23T07:07:30;99290.69;;;9.97;91.05
78223;BME280;67497;53.058;21.618;2024-03-23T07:09:30;99281.94;;;9.94;91.32
78223;BME280;67497;53.058;21.618;2024-03-23T07:11:31;99285.88;;;9.91;91.70
78223;BME280;67497;53.058;21.618;2024-03-23T07:13:31;99300.94;;;9.87;89.97
78223;BME280;67497;53.058;21.618;2024-03-23T07:15:32;99303.34;;;9.74;89.75
78223;BME280;67497;53.058;21.618;2024-03-23T07:17:32;99285.06;;;9.67;90.63
78223;BME280;67497;53.058;21.618;2024-03-23T07:19:33;99296.53;;;9.62;90.26
78223;BME280;67497;53.058;21.618;2024-03-23T07:21:33;99297.91;;;9.42;91.39
78223;BME280;67497;53.058;21.618;2024-03-23T07:23:34;99285.25;;;9.41;91.64
78223;BME280;67497;53.058;21.618;2024-03-23T07:25:34;99287.16;;;9.40;92.84
78223;BME280;67497;53.058;21.618;2024-03-23T07:27:35;99289.88;;;9.40;93.63
78223;BME280;67497;53.058;21.618;2024-03-23T07:29:36;99289.69;;;9.34;94.42
78223;BME280;67497;53.058;21.618;2024-03-23T07:31:36;99294.16;;;9.27;93.09
78223;BME280;67497;53.058;21.618;2024-03-23T07:33:42;99281.16;;;9.21;92.73
78223;BME280;67497;53.058;21.618;2024-03-23T07:35:42;99290.72;;;9.17;93.20
78223;BME280;67497;53.058;21.618;2024-03-23T07:37:43;99287.97;;;9.17;93.68
78223;BME280;67497;53.058;21.618;2024-03-23T07:39:43;99278.75;;;9.18;93.34
78223;BME280;67497;53.058;21.618;2024-03-23T07:41:44;99275.69;;;9.13;92.67
78223;BME280;67497;53.058;21.618;2024-03-23T07:43:46;99283.22;;;9.11;91.79
78223;BME280;67497;53.058;21.618;2024-03-23T07:45:53;99267.16;;;9.08;92.81
78223;BME280;67497;53.058;21.618;2024-03-23T07:47:53;99268.34;;;9.05;92.93
78223;BME280;67497;53.058;21.618;2024-03-23T07:49:54;99262.38;;;9.10;93.07
78223;BME280;67497;53.058;21.618;2024-03-23T07:51:54;99258.97;;;9.16;92.48
78223;BME280;67497;53.058;21.618;2024-03-23T07:53:54;99242.56;;;9.16;93.30
78223;BME280;67497;53.058;21.618;2024-03-23T07:55:59;99244.97;;;9.19;92.39
78223;BME280;67497;53.058;21.618;2024-03-23T07:58:00;99240.50;;;9.18;91.46
78223;BME280;67497;53.058;21.618;2024-03-23T08:00:00;99232.31;;;9.26;92.43
78223;BME280;67497;53.058;21.618;2024-03-23T08:02:01;99231.44;;;9.41;91.61
78223;BME280;67497;53.058;21.618;2024-03-23T08:04:01;99233.81;;;9.52;90.90
78223;BME280;67497;53.058;21.618;2024-03-23T08:06:13;99224.41;;;9.63;91.44
78223;BME280;67497;53.058;21.618;2024-03-23T08:08:14;99231.72;;;9.71;89.33
78223;BME280;67497;53.058;21.618;2024-03-23T08:10:14;99228.97;;;9.79;89.38
78223;BME280;67497;53.058;21.618;2024-03-23T08:12:18;99228.97;;;9.79;88.55
78223;BME280;67497;53.058;21.618;2024-03-23T08:14:18;99234.31;;;9.72;87.92
78223;BME280;67497;53.058;21.618;2024-03-23T08:16:20;99237.75;;;9.58;89.44
78223;BME280;67497;53.058;21.618;2024-03-23T08:18:20;99229.22;;;9.45;89.06
78223;BME280;67497;53.058;21.618;2024-03-23T08:20:20;99220.19;;;9.36;88.69
78223;BME280;67497;53.058;21.618;2024-03-23T08:22:21;99220.38;;;9.35;87.89
78223;BME280;67497;53.058;21.618;2024-03-23T08:24:22;99225.50;;;9.38;89.79
78223;BME280;67497;53.058;21.618;2024-03-23T08:26:22;99221.56;;;9.32;89.25
78223;BME280;67497;53.058;21.618;2024-03-23T08:28:23;99207.19;;;9.30;90.08
78223;BME280;67497;53.058;21.618;2024-03-23T08:30:23;99207.72;;;9.26;89.36
78223;BME280;67497;53.058;21.618;2024-03-23T08:32:24;99206.88;;;9.25;89.98
78223;BME280;67497;53.058;21.618;2024-03-23T08:34:24;99214.38;;;9.31;90.67
78223;BME280;67497;53.058;21.618;2024-03-23T08:36:24;99210.44;;;9.26;89.49
78223;BME280;67497;53.058;21.618;2024-03-23T08:38:26;99215.56;;;9.29;90.11
78223;BME280;67497;53.058;21.618;2024-03-23T08:40:27;99205.00;;;9.26;90.43
78223;BME280;67497;53.058;21.618;2024-03-23T08:42:27;99202.25;;;9.18;90.51
78223;BME280;67497;53.058;21.618;2024-03-23T08:44:27;99203.97;;;9.19;90.65
78223;BME280;67497;53.058;21.618;2024-03-23T08:46:28;99196.47;;;9.13;91.37
78223;BME280;67497;53.058;21.618;2024-03-23T08:48:28;99191.16;;;9.11;91.48
78223;BME280;67497;53.058;21.618;2024-03-23T08:50:28;99191.53;;;9.08;91.58
78223;BME280;67497;53.058;21.618;2024-03-23T08:52:29;99181.59;;;9.07;91.64
78223;BME280;67497;53.058;21.618;2024-03-23T08:54:29;99185.19;;;9.08;91.99
78223;BME280;67497;53.058;21.618;2024-03-23T08:56:31;99187.25;;;9.06;93.45
78223;BME280;67497;53.058;21.618;2024-03-23T08:58:32;99188.09;;;9.06;93.80
78223;BME280;67497;53.058;21.618;2024-03-23T09:00:33;99183.16;;;9.10;93.53
78223;BME280;67497;53.058;21.618;2024-03-23T09:02:34;99180.59;;;9.08;93.41
78223;BME280;67497;53.058;21.618;2024-03-23T09:04:34;99183.16;;;9.10;93.35
78223;BME280;67497;53.058;21.618;2024-03-23T09:06:35;99177.50;;;9.11;94.14
78223;BME280;67497;53.058;21.618;2024-03-23T09:08:35;99169.28;;;9.11;93.81
78223;BME280;67497;53.058;21.618;2024-03-23T09:10:40;99157.34;;;9.20;93.97
78223;BME280;67497;53.058;21.618;2024-03-23T09:12:41;99157.88;;;9.24;94.36
78223;BME280;67497;53.058;21.618;2024-03-23T09:14:41;99145.72;;;9.26;94.42
78223;BME280;67497;53.058;21.618;2024-03-23T09:16:42;99139.06;;;9.29;95.36
78223;BME280;67497;53.058;21.618;2024-03-23T09:18:42;99143.13;;;9.41;95.32
78223;BME280;67497;53.058;21.618;2024-03-23T09:20:43;99140.03;;;9.44;96.39
78223;BME280;67497;53.058;21.618;2024-03-23T09:22:43;99137.16;;;9.45;95.96
78223;BME280;67497;53.058;21.618;2024-03-23T09:24:44;99149.59;;;9.48;94.90
78223;BME280;67497;53.058;21.618;2024-03-23T09:26:44;99134.94;;;9.33;94.96
78223;BME280;67497;53.058;21.618;2024-03-23T09:28:44;99144.00;;;9.25;94.59
78223;BME280;67497;53.058;21.618;2024-03-23T09:30:45;99136.00;;;9.24;95.30
78223;BME280;67497;53.058;21.618;2024-03-23T09:32:45;99139.09;;;9.13;96.86
78223;BME280;67497;53.058;21.618;2024-03-23T09:34:46;99134.63;;;9.12;97.52
78223;BME280;67497;53.058;21.618;2024-03-23T09:36:47;99134.97;;;9.09;98.34
78223;BME280;67497;53.058;21.618;2024-03-23T09:38:47;99132.09;;;9.10;99.57
78223;BME280;67497;53.058;21.618;2024-03-23T09:40:49;99117.59;;;9.01;99.37
78223;BME280;67497;53.058;21.618;2024-03-23T09:42:53;99123.25;;;9.00;99.56
78223;BME280;67497;53.058;21.618;2024-03-23T09:44:53;99132.78;;;8.96;100.00
78223;BME280;67497;53.058;21.618;2024-03-23T09:46:56;99115.88;;;8.92;100.00
78223;BME280;67497;53.058;21.618;2024-03-23T09:48:57;99121.00;;;8.95;100.00
78223;BME280;67497;53.058;21.618;2024-03-23T09:50:57;99118.13;;;8.97;100.00
78223;BME280;67497;53.058;21.618;2024-03-23T09:52:58;99104.63;;;8.95;100.00
78223;BME280;67497;53.058;21.618;2024-03-23T09:54:58;99107.00;;;8.90;100.00
78223;BME280;67497;53.058;21.618;2024-03-23T09:56:59;99083.31;;;8.83;100.00
78223;BME280;67497;53.058;21.618;2024-03-23T09:59:02;99068.09;;;8.88;100.00
78223;BME280;67497;53.058;21.618;2024-03-23T10:01:03;99062.63;;;8.96;100.00
78223;BME280;67497;53.058;21.618;2024-03-23T10:03:04;99059.56;;;8.99;100.00
78223;BME280;67497;53.058;21.618;2024-03-23T10:05:20;99058.88;;;9.06;100.00
78223;BME280;67497;53.058;21.618;2024-03-23T10:07:21;99063.25;;;9.15;100.00
78223;BME280;67497;53.058;21.618;2024-03-23T10:09:22;99057.25;;;9.19;100.00
78223;BME280;67497;53.058;21.618;2024-03-23T10:11:22;99058.13;;;9.20;100.00
78223;BME280;67497;53.058;21.618;2024-03-23T10:13:24;99055.75;;;9.17;100.00
78223;BME280;67497;53.058;21.618;2024-03-23T10:15:25;99063.09;;;9.16;100.00
78223;BME280;67497;53.058;21.618;2024-03-23T10:17:25;99058.84;;;9.14;100.00
78223;BME280;67497;53.058;21.618;2024-03-23T10:19:32;99056.47;;;9.11;100.00
78223;BME280;67497;53.058;21.618;2024-03-23T10:21:32;99055.28;;;9.05;100.00
78223;BME280;67497;53.058;21.618;2024-03-23T10:23:37;99048.97;;;9.05;100.00
78223;BME280;67497;53.058;21.618;2024-03-23T10:25:38;99045.22;;;9.06;100.00
78223;BME280;67497;53.058;21.618;2024-03-23T10:27:38;99042.81;;;9.02;100.00
78223;BME280;67497;53.058;21.618;2024-03-23T10:29:38;99036.66;;;9.00;100.00
78223;BME280;67497;53.058;21.618;2024-03-23T10:31:39;99032.91;;;9.01;100.00
78223;BME280;67497;53.058;21.618;2024-03-23T10:33:48;99031.53;;;8.97;100.00
78223;BME280;67497;53.058;21.618;2024-03-23T10:35:49;99029.34;;;8.93;100.00
78223;BME280;67497;53.058;21.618;2024-03-23T10:37:51;99028.69;;;8.91;100.00
78223;BME280;67497;53.058;21.618;2024-03-23T10:39:52;99019.63;;;8.90;100.00
78223;BME280;67497;53.058;21.618;2024-03-23T10:41:53;99014.50;;;8.87;100.00
78223;BME280;67497;53.058;21.618;2024-03-23T10:43:55;99006.00;;;8.82;100.00
78223;BME280;67497;53.058;21.618;2024-03-23T10:45:57;99005.66;;;8.85;100.00
78223;BME280;67497;53.058;21.618;2024-03-23T10:47:58;98989.25;;;8.85;100.00
78223;BME280;67497;53.058;21.618;2024-03-23T10:49:58;98977.66;;;8.91;100.00
78223;BME280;67497;53.058;21.618;2024-03-23T10:52:03;98981.38;;;8.90;100.00
78223;BME280;67497;53.058;21.618;2024-03-23T10:54:04;98981.03;;;8.93;100.00
78223;BME280;67497;53.058;21.618;2024-03-23T10:56:07;98971.84;;;8.94;100.00
78223;BME280;67497;53.058;21.618;2024-03-23T10:58:08;98972.84;;;8.93;100.00
78223;BME280;67497;53.058;21.618;2024-03-23T11:00:09;98973.16;;;8.98;100.00
78223;BME280;67497;53.058;21.618;2024-03-23T11:02:29;98973.50;;;9.03;100.00
78223;BME280;67497;53.058;21.618;2024-03-23T11:04:34;98970.75;;;9.03;100.00
78223;BME280;67497;53.058;21.618;2024-03-23T11:06:36;98964.44;;;9.03;100.00
78223;BME280;67497;53.058;21.618;2024-03-23T11:08:38;98952.69;;;9.02;100.00
78223;BME280;67497;53.058;21.618;2024-03-23T11:10:39;98947.88;;;9.05;100.00
78223;BME280;67497;53.058;21.618;2024-03-23T11:12:40;98948.53;;;9.15;100.00
78223;BME280;67497;53.058;21.618;2024-03-23T11:14:40;98950.59;;;9.13;100.00
78223;BME280;67497;53.058;21.618;2024-03-23T11:16:41;98951.59;;;9.12;100.00
78223;BME280;67497;53.058;21.618;2024-03-23T11:18:42;98945.13;;;9.13;100.00
78223;BME280;67497;53.058;21.618;2024-03-23T11:20:43;98935.53;;;9.17;100.00
78223;BME280;67497;53.058;21.618;2024-03-23T11:22:45;98936.19;;;9.27;100.00
78223;BME280;67497;53.058;21.618;2024-03-23T11:24:50;98945.94;;;9.21;100.00
78223;BME280;67497;53.058;21.618;2024-03-23T11:26:50;98932.13;;;9.15;100.00